sensor_id;sensor_type;location;lat;lon;timestamp;P1;durP1;ratioP1;P2;durP2;ratioP2
71902;SDS011;59778;50.310;18.780;2024-03-07T00:02:02;32.73;;;13.27;;
71902;SDS011;59778;50.310;18.780;2024-03-07T00:17:23;39.97;;;13.83;;
71902;SDS011;59778;50.310;18.780;2024-03-07T00:32:45;30.47;;;12.47;;
71902;SDS011;59778;50.310;18.780;2024-03-07T00:48:07;40.63;;;14.07;;
71902;SDS011;59778;50.310;18.780;2024-03-07T01:03:28;30.97;;;11.57;;
71902;SDS011;59778;50.310;18.780;2024-03-07T01:18:49;35.33;;;13.23;;
71902;SDS011;59778;50.310;18.780;2024-03-07T01:34:11;33.70;;;11.47;;
71902;SDS011;59778;50.310;18.780;2024-03-07T01:49:32;36.20;;;12.73;;
71902;SDS011;59778;50.310;18.780;2024-03-07T02:04:53;31.93;;;12.53;;
71902;SDS011;59778;50.310;18.780;2024-03-07T02:20:14;38.40;;;14.53;;
71902;SDS011;59778;50.310;18.780;2024-03-07T02:35:36;40.10;;;14.27;;
71902;SDS011;59778;50.310;18.780;2024-03-07T02:50:57;35.10;;;12.80;;
71902;SDS011;59778;50.310;18.780;2024-03-07T03:06:19;40.93;;;14.70;;
71902;SDS011;59778;50.310;18.780;2024-03-07T03:21:42;39.57;;;13.77;;
71902;SDS011;59778;50.310;18.780;2024-03-07T03:37:04;37.40;;;13.83;;
71902;SDS011;59778;50.310;18.780;2024-03-07T03:52:26;44.60;;;15.57;;
71902;SDS011;59778;50.310;18.780;2024-03-07T04:07:49;30.77;;;12.97;;
71902;SDS011;59778;50.310;18.780;2024-03-07T04:23:10;28.80;;;11.97;;
71902;SDS011;59778;50.310;18.780;2024-03-07T04:38:31;27.73;;;11.03;;
71902;SDS011;59778;50.310;18.780;2024-03-07T04:53:52;30.03;;;12.53;;
71902;SDS011;59778;50.310;18.780;2024-03-07T05:09:14;31.90;;;12.57;;
71902;SDS011;59778;50.310;18.780;2024-03-07T05:24:43;25.77;;;10.43;;
71902;SDS011;59778;50.310;18.780;2024-03-07T05:40:05;26.33;;;11.77;;
71902;SDS011;59778;50.310;18.780;2024-03-07T05:55:28;36.07;;;14.03;;
71902;SDS011;59778;50.310;18.780;2024-03-07T06:10:49;32.50;;;14.37;;
71902;SDS011;59778;50.310;18.780;2024-03-07T06:26:14;31.27;;;13.17;;
71902;SDS011;59778;50.310;18.780;2024-03-07T06:41:37;33.83;;;13.90;;
71902;SDS011;59778;50.310;18.780;2024-03-07T06:56:58;35.90;;;13.57;;
71902;SDS011;59778;50.310;18.780;2024-03-07T07:12:19;37.03;;;14.23;;
71902;SDS011;59778;50.310;18.780;2024-03-07T07:27:41;32.07;;;13.80;;
71902;SDS011;59778;50.310;18.780;2024-03-07T07:43:03;30.47;;;13.33;;
71902;SDS011;59778;50.310;18.780;2024-03-07T07:58:24;35.67;;;13.07;;
71902;SDS011;59778;50.310;18.780;2024-03-07T08:13:45;41.47;;;13.47;;
71902;SDS011;59778;50.310;18.780;2024-03-07T08:29:10;126.40;;;33.60;;
71902;SDS011;59778;50.310;18.780;2024-03-07T08:44:32;142.73;;;34.37;;
71902;SDS011;59778;50.310;18.780;2024-03-07T08:59:53;49.77;;;17.37;;
71902;SDS011;59778;50.310;18.780;2024-03-07T09:15:15;36.10;;;15.43;;
71902;SDS011;59778;50.310;18.780;2024-03-07T09:30:37;39.60;;;14.77;;
71902;SDS011;59778;50.310;18.780;2024-03-07T09:46:00;39.37;;;15.47;;
71902;SDS011;59778;50.310;18.780;2024-03-07T10:01:25;45.03;;;17.50;;
71902;SDS011;59778;50.310;18.780;2024-03-07T10:16:46;33.43;;;13.77;;
71902;SDS011;59778;50.310;18.780;2024-03-07T10:32:11;35.60;;;15.07;;
71902;SDS011;59778;50.310;18.780;2024-03-07T10:47:33;61.60;;;21.33;;
71902;SDS011;59778;50.310;18.780;2024-03-07T11:02:57;51.43;;;18.70;;
71902;SDS011;59778;50.310;18.780;2024-03-07T11:18:18;47.57;;;17.43;;
71902;SDS011;59778;50.310;18.780;2024-03-07T11:33:42;43.67;;;17.20;;
71902;SDS011;59778;50.310;18.780;2024-03-07T11:49:25;46.40;;;18.40;;
71902;SDS011;59778;50.310;18.780;2024-03-07T12:04:49;76.20;;;30.10;;
71902;SDS011;59778;50.310;18.780;2024-03-07T12:20:11;53.37;;;22.07;;
71902;SDS011;59778;50.310;18.780;2024-03-07T12:35:46;37.03;;;16.40;;
71902;SDS011;59778;50.310;18.780;2024-03-07T12:51:09;33.67;;;14.50;;
71902;SDS011;59778;50.310;18.780;2024-03-07T13:06:30;37.83;;;17.33;;
71902;SDS011;59778;50.310;18.780;2024-03-07T13:21:51;43.10;;;18.10;;
71902;SDS011;59778;50.310;18.780;2024-03-07T13:37:14;36.80;;;16.10;;
71902;SDS011;59778;50.310;18.780;2024-03-07T13:52:38;43.10;;;16.70;;
71902;SDS011;59778;50.310;18.780;2024-03-07T14:23:56;27.53;;;10.70;;
71902;SDS011;59778;50.310;18.780;2024-03-07T14:39:24;38.03;;;14.20;;
71902;SDS011;59778;50.310;18.780;2024-03-07T14:54:46;39.83;;;15.90;;
71902;SDS011;59778;50.310;18.780;2024-03-07T15:10:11;52.83;;;19.10;;
71902;SDS011;59778;50.310;18.780;2024-03-07T15:25:44;26.13;;;12.07;;
71902;SDS011;59778;50.310;18.780;2024-03-07T15:41:05;32.60;;;12.90;;
71902;SDS011;59778;50.310;18.780;2024-03-07T15:56:29;30.67;;;12.43;;
71902;SDS011;59778;50.310;18.780;2024-03-07T16:11:50;28.13;;;12.60;;
71902;SDS011;59778;50.310;18.780;2024-03-07T16:27:11;38.13;;;15.70;;
71902;SDS011;59778;50.310;18.780;2024-03-07T16:42:32;36.03;;;13.07;;
71902;SDS011;59778;50.310;18.780;2024-03-07T16:57:53;40.10;;;15.77;;
71902;SDS011;59778;50.310;18.780;2024-03-07T17:13:14;39.17;;;13.97;;
71902;SDS011;59778;50.310;18.780;2024-03-07T17:28:35;42.73;;;15.77;;
71902;SDS011;59778;50.310;18.780;2024-03-07T17:43:56;63.63;;;20.67;;
71902;SDS011;59778;50.310;18.780;2024-03-07T17:59:19;61.00;;;20.70;;
71902;SDS011;59778;50.310;18.780;2024-03-07T18:14:42;45.90;;;18.17;;
71902;SDS011;59778;50.310;18.780;2024-03-07T18:30:10;80.80;;;24.40;;
71902;SDS011;59778;50.310;18.780;2024-03-07T18:45:34;36.57;;;15.30;;
71902;SDS011;59778;50.310;18.780;2024-03-07T19:00:56;39.53;;;16.97;;
71902;SDS011;59778;50.310;18.780;2024-03-07T19:16:18;43.50;;;17.27;;
71902;SDS011;59778;50.310;18.780;2024-03-07T19:31:39;41.40;;;17.07;;
71902;SDS011;59778;50.310;18.780;2024-03-07T19:47:00;70.73;;;26.77;;
71902;SDS011;59778;50.310;18.780;2024-03-07T20:02:22;51.37;;;21.60;;
71902;SDS011;59778;50.310;18.780;2024-03-07T20:17:43;56.33;;;22.33;;
71902;SDS011;59778;50.310;18.780;2024-03-07T20:33:04;53.10;;;18.33;;
71902;SDS011;59778;50.310;18.780;2024-03-07T20:48:26;44.27;;;18.10;;
71902;SDS011;59778;50.310;18.780;2024-03-07T21:03:48;52.27;;;18.70;;
71902;SDS011;59778;50.310;18.780;2024-03-07T21:19:10;56.73;;;22.30;;
71902;SDS011;59778;50.310;18.780;2024-03-07T21:34:31;50.70;;;19.27;;
71902;SDS011;59778;50.310;18.780;2024-03-07T21:49:53;57.03;;;21.93;;
71902;SDS011;59778;50.310;18.780;2024-03-07T22:05:14;62.60;;;25.33;;
71902;SDS011;59778;50.310;18.780;2024-03-07T22:20:39;60.70;;;22.60;;
71902;SDS011;59778;50.310;18.780;2024-03-07T22:36:03;62.20;;;24.33;;
71902;SDS011;59778;50.310;18.780;2024-03-07T22:51:24;57.10;;;23.10;;
71902;SDS011;59778;50.310;18.780;2024-03-07T23:06:45;66.60;;;22.27;;
71902;SDS011;59778;50.310;18.780;2024-03-07T23:22:08;61.07;;;21.27;;
71902;SDS011;59778;50.310;18.780;2024-03-07T23:37:29;58.00;;;20.67;;
71902;SDS011;59778;50.310;18.780;2024-03-07T23:52:51;57.37;;;21.87;;
